Terminal Aerodrome Forecast
Issued by NWS Mt. Holly, NJ

Home | Current Version | Previous Version | Text Only | Print | Product List | Glossary On
Versions: 1 2 3 4 5 6 7 8 9 10 11 12 13 14 15 16 17 18 19 20 21 22
000
FTUS41 KPHI 030224 AAA
TAFTTN
TAF AMD
KTTN 030224Z 0302/0324 VRB02KT 4SM BR SCT030 BKN180
     FM031200 08004KT P6SM BKN040
     FM031800 13008KT P6SM SCT040 BKN200=

USA.gov is the U.S. government's official web portal to all federal, state and local government web resources and services.